Hammond, New York
Current Conditions -  °F | °C
As of 2:58 PM on Wednesday 28 Jan 2015 (Local Time) from KGTB Reporting Station
Clear Clear  
Wind Chill:   Ceiling: Unl
Heat Index: 15°   Visibility: 10mi
Dew Point: -11°   Wind: 5mph
Humidity: 31%   Direction: NA
Pressure: 30.22"   Gusts: NA
Location:  44.45°N, 75.69°W
Report Text: KGTB 281958Z AUTO VRB04KT 10SM CLR M09/M24 A3022 RMK AO2 SLP249 T10921237
Loading
Personal Weather Stations






























Interactive Weather Map New forecast layout! Learn more

10-Day Weather Forecast

Advertisements
Track Severe Weather on mobile